sensor_id;sensor_type;location;lat;lon;timestamp;P1;durP1;ratioP1;P2;durP2;ratioP2
58689;SDS011;44470;53.206;-6.106;2023-01-28T00:01:46;10.98;;;4.20;;
58689;SDS011;44470;53.206;-6.106;2023-01-28T00:07:15;10.70;;;4.13;;
58689;SDS011;44470;53.206;-6.106;2023-01-28T00:09:41;13.43;;;4.40;;
58689;SDS011;44470;53.206;-6.106;2023-01-28T00:12:06;10.63;;;4.03;;
58689;SDS011;44470;53.206;-6.106;2023-01-28T00:14:32;7.75;;;4.20;;
58689;SDS011;44470;53.206;-6.106;2023-01-28T00:16:57;16.05;;;4.65;;
58689;SDS011;44470;53.206;-6.106;2023-01-28T00:19:23;14.65;;;4.80;;
58689;SDS011;44470;53.206;-6.106;2023-01-28T00:21:48;9.00;;;4.93;;
58689;SDS011;44470;53.206;-6.106;2023-01-28T00:24:14;10.02;;;4.35;;
58689;SDS011;44470;53.206;-6.106;2023-01-28T00:26:40;12.40;;;4.68;;
58689;SDS011;44470;53.206;-6.106;2023-01-28T00:29:05;8.30;;;3.80;;
58689;SDS011;44470;53.206;-6.106;2023-01-28T00:31:31;12.80;;;4.43;;
58689;SDS011;44470;53.206;-6.106;2023-01-28T00:33:58;16.00;;;4.43;;
58689;SDS011;44470;53.206;-6.106;2023-01-28T00:36:24;13.38;;;4.30;;
58689;SDS011;44470;53.206;-6.106;2023-01-28T00:38:51;10.00;;;4.25;;
58689;SDS011;44470;53.206;-6.106;2023-01-28T00:41:19;9.50;;;3.92;;
58689;SDS011;44470;53.206;-6.106;2023-01-28T00:43:46;10.30;;;4.22;;
58689;SDS011;44470;53.206;-6.106;2023-01-28T00:46:13;14.38;;;4.00;;
58689;SDS011;44470;53.206;-6.106;2023-01-28T00:48:39;15.93;;;4.30;;
58689;SDS011;44470;53.206;-6.106;2023-01-28T00:51:06;14.90;;;4.78;;
58689;SDS011;44470;53.206;-6.106;2023-01-28T00:53:32;20.55;;;4.57;;
58689;SDS011;44470;53.206;-6.106;2023-01-28T00:55:59;15.90;;;4.22;;
58689;SDS011;44470;53.206;-6.106;2023-01-28T00:58:25;11.73;;;4.05;;
58689;SDS011;44470;53.206;-6.106;2023-01-28T01:00:50;15.00;;;4.47;;
58689;SDS011;44470;53.206;-6.106;2023-01-28T01:03:17;13.90;;;4.20;;
58689;SDS011;44470;53.206;-6.106;2023-01-28T01:05:43;11.23;;;4.10;;
58689;SDS011;44470;53.206;-6.106;2023-01-28T01:08:09;13.85;;;4.38;;
58689;SDS011;44470;53.206;-6.106;2023-01-28T01:10:36;10.02;;;3.95;;
58689;SDS011;44470;53.206;-6.106;2023-01-28T01:13:02;12.18;;;4.03;;
58689;SDS011;44470;53.206;-6.106;2023-01-28T01:15:29;12.77;;;3.97;;
58689;SDS011;44470;53.206;-6.106;2023-01-28T01:17:55;9.80;;;3.60;;
58689;SDS011;44470;53.206;-6.106;2023-01-28T01:20:22;8.98;;;3.72;;
58689;SDS011;44470;53.206;-6.106;2023-01-28T01:22:50;6.72;;;3.10;;
58689;SDS011;44470;53.206;-6.106;2023-01-28T01:25:16;8.13;;;3.30;;
58689;SDS011;44470;53.206;-6.106;2023-01-28T01:27:42;9.60;;;3.60;;
58689;SDS011;44470;53.206;-6.106;2023-01-28T01:30:11;8.93;;;3.50;;
58689;SDS011;44470;53.206;-6.106;2023-01-28T01:32:37;10.02;;;3.55;;
58689;SDS011;44470;53.206;-6.106;2023-01-28T01:35:03;7.90;;;3.38;;
58689;SDS011;44470;53.206;-6.106;2023-01-28T01:37:30;9.35;;;3.40;;
58689;SDS011;44470;53.206;-6.106;2023-01-28T01:39:56;7.45;;;3.25;;
58689;SDS011;44470;53.206;-6.106;2023-01-28T01:42:21;6.53;;;3.22;;
58689;SDS011;44470;53.206;-6.106;2023-01-28T01:45:06;9.00;;;3.30;;
58689;SDS011;44470;53.206;-6.106;2023-01-28T01:47:56;6.63;;;3.40;;
58689;SDS011;44470;53.206;-6.106;2023-01-28T01:50:28;5.70;;;2.95;;
58689;SDS011;44470;53.206;-6.106;2023-01-28T01:52:59;9.02;;;3.25;;
58689;SDS011;44470;53.206;-6.106;2023-01-28T01:55:29;7.70;;;3.00;;
58689;SDS011;44470;53.206;-6.106;2023-01-28T02:00:26;9.35;;;3.22;;
58689;SDS011;44470;53.206;-6.106;2023-01-28T02:02:52;4.53;;;2.92;;
58689;SDS011;44470;53.206;-6.106;2023-01-28T02:05:19;5.88;;;2.88;;
58689;SDS011;44470;53.206;-6.106;2023-01-28T02:07:47;7.22;;;3.00;;
58689;SDS011;44470;53.206;-6.106;2023-01-28T02:10:16;4.60;;;2.60;;
58689;SDS011;44470;53.206;-6.106;2023-01-28T02:12:43;3.60;;;2.78;;
58689;SDS011;44470;53.206;-6.106;2023-01-28T02:15:15;5.32;;;2.63;;
58689;SDS011;44470;53.206;-6.106;2023-01-28T02:17:43;3.78;;;2.60;;
58689;SDS011;44470;53.206;-6.106;2023-01-28T02:20:13;4.13;;;2.70;;
58689;SDS011;44470;53.206;-6.106;2023-01-28T02:33:55;5.35;;;2.50;;
58689;SDS011;44470;53.206;-6.106;2023-01-28T02:36:36;4.47;;;2.60;;
58689;SDS011;44470;53.206;-6.106;2023-01-28T02:39:22;6.18;;;2.50;;
58689;SDS011;44470;53.206;-6.106;2023-01-28T02:41:58;2.60;;;2.40;;
58689;SDS011;44470;53.206;-6.106;2023-01-28T02:44:28;4.28;;;2.20;;
58689;SDS011;44470;53.206;-6.106;2023-01-28T02:46:54;4.55;;;2.50;;
58689;SDS011;44470;53.206;-6.106;2023-01-28T02:49:43;2.38;;;2.17;;
58689;SDS011;44470;53.206;-6.106;2023-01-28T03:00:50;2.40;;;2.20;;
58689;SDS011;44470;53.206;-6.106;2023-01-28T03:06:11;2.50;;;2.30;;
58689;SDS011;44470;53.206;-6.106;2023-01-28T03:08:44;4.53;;;2.47;;
58689;SDS011;44470;53.206;-6.106;2023-01-28T03:11:33;3.20;;;2.20;;
58689;SDS011;44470;53.206;-6.106;2023-01-28T03:14:22;2.72;;;2.25;;
58689;SDS011;44470;53.206;-6.106;2023-01-28T03:17:11;2.78;;;2.30;;
58689;SDS011;44470;53.206;-6.106;2023-01-28T03:20:04;4.45;;;2.40;;
58689;SDS011;44470;53.206;-6.106;2023-01-28T03:22:50;3.30;;;2.20;;
58689;SDS011;44470;53.206;-6.106;2023-01-28T03:25:37;3.50;;;2.05;;
58689;SDS011;44470;53.206;-6.106;2023-01-28T03:28:25;2.28;;;2.08;;
58689;SDS011;44470;53.206;-6.106;2023-01-28T03:31:13;3.75;;;2.05;;
58689;SDS011;44470;53.206;-6.106;2023-01-28T03:34:00;3.33;;;2.22;;
58689;SDS011;44470;53.206;-6.106;2023-01-28T03:36:46;3.80;;;2.20;;
58689;SDS011;44470;53.206;-6.106;2023-01-28T03:39:30;2.25;;;2.05;;
58689;SDS011;44470;53.206;-6.106;2023-01-28T03:44:26;2.60;;;1.92;;
58689;SDS011;44470;53.206;-6.106;2023-01-28T03:47:11;1.77;;;1.67;;
58689;SDS011;44470;53.206;-6.106;2023-01-28T03:49:40;2.95;;;2.03;;
58689;SDS011;44470;53.206;-6.106;2023-01-28T03:52:11;3.30;;;2.03;;
58689;SDS011;44470;53.206;-6.106;2023-01-28T03:54:37;1.92;;;1.80;;
58689;SDS011;44470;53.206;-6.106;2023-01-28T03:57:03;2.10;;;1.73;;
58689;SDS011;44470;53.206;-6.106;2023-01-28T03:59:30;2.88;;;1.95;;
58689;SDS011;44470;53.206;-6.106;2023-01-28T04:01:56;2.72;;;1.83;;
58689;SDS011;44470;53.206;-6.106;2023-01-28T04:04:22;1.90;;;1.70;;
58689;SDS011;44470;53.206;-6.106;2023-01-28T04:06:52;2.58;;;1.80;;
58689;SDS011;44470;53.206;-6.106;2023-01-28T04:09:22;2.03;;;1.77;;
58689;SDS011;44470;53.206;-6.106;2023-01-28T04:12:00;1.75;;;1.65;;
58689;SDS011;44470;53.206;-6.106;2023-01-28T04:14:32;1.80;;;1.70;;
58689;SDS011;44470;53.206;-6.106;2023-01-28T04:17:11;2.25;;;1.60;;
58689;SDS011;44470;53.206;-6.106;2023-01-28T04:19:37;1.88;;;1.77;;
58689;SDS011;44470;53.206;-6.106;2023-01-28T04:22:05;1.92;;;1.60;;
58689;SDS011;44470;53.206;-6.106;2023-01-28T04:24:33;1.77;;;1.67;;
58689;SDS011;44470;53.206;-6.106;2023-01-28T04:26:58;1.80;;;1.55;;
58689;SDS011;44470;53.206;-6.106;2023-01-28T04:29:24;1.83;;;1.73;;
58689;SDS011;44470;53.206;-6.106;2023-01-28T04:31:52;1.92;;;1.83;;
58689;SDS011;44470;53.206;-6.106;2023-01-28T04:34:32;2.28;;;1.92;;
58689;SDS011;44470;53.206;-6.106;2023-01-28T04:37:27;2.15;;;1.50;;
58689;SDS011;44470;53.206;-6.106;2023-01-28T04:40:12;1.80;;;1.70;;
58689;SDS011;44470;53.206;-6.106;2023-01-28T04:42:40;1.60;;;1.50;;
58689;SDS011;44470;53.206;-6.106;2023-01-28T04:45:14;2.53;;;1.50;;
58689;SDS011;44470;53.206;-6.106;2023-01-28T04:47:55;1.52;;;1.40;;
58689;SDS011;44470;53.206;-6.106;2023-01-28T04:50:28;1.55;;;1.45;;
58689;SDS011;44470;53.206;-6.106;2023-01-28T04:53:07;1.30;;;1.17;;
58689;SDS011;44470;53.206;-6.106;2023-01-28T04:55:38;1.45;;;1.35;;
58689;SDS011;44470;53.206;-6.106;2023-01-28T04:58:04;1.30;;;1.20;;
58689;SDS011;44470;53.206;-6.106;2023-01-28T05:00:32;1.52;;;1.42;;
58689;SDS011;44470;53.206;-6.106;2023-01-28T05:02:58;1.13;;;1.02;;
58689;SDS011;44470;53.206;-6.106;2023-01-28T05:05:23;1.75;;;1.23;;
58689;SDS011;44470;53.206;-6.106;2023-01-28T05:07:56;1.40;;;1.30;;
58689;SDS011;44470;53.206;-6.106;2023-01-28T05:10:22;1.40;;;1.30;;
58689;SDS011;44470;53.206;-6.106;2023-01-28T05:12:49;2.17;;;1.42;;
58689;SDS011;44470;53.206;-6.106;2023-01-28T05:15:16;1.27;;;1.17;;
58689;SDS011;44470;53.206;-6.106;2023-01-28T05:17:42;1.20;;;1.10;;
58689;SDS011;44470;53.206;-6.106;2023-01-28T05:20:10;1.20;;;1.10;;
58689;SDS011;44470;53.206;-6.106;2023-01-28T05:22:37;1.75;;;1.05;;
58689;SDS011;44470;53.206;-6.106;2023-01-28T05:25:33;1.27;;;1.17;;
58689;SDS011;44470;53.206;-6.106;2023-01-28T05:27:58;1.17;;;1.08;;
58689;SDS011;44470;53.206;-6.106;2023-01-28T05:30:24;1.17;;;1.05;;
58689;SDS011;44470;53.206;-6.106;2023-01-28T05:32:53;1.30;;;1.20;;
58689;SDS011;44470;53.206;-6.106;2023-01-28T05:35:21;0.98;;;0.98;;
58689;SDS011;44470;53.206;-6.106;2023-01-28T05:37:46;0.95;;;0.95;;
58689;SDS011;44470;53.206;-6.106;2023-01-28T05:40:12;1.40;;;0.88;;
58689;SDS011;44470;53.206;-6.106;2023-01-28T05:42:38;1.48;;;1.38;;
58689;SDS011;44470;53.206;-6.106;2023-01-28T05:45:19;1.48;;;0.93;;
58689;SDS011;44470;53.206;-6.106;2023-01-28T05:48:03;1.40;;;1.00;;
58689;SDS011;44470;53.206;-6.106;2023-01-28T05:50:56;0.88;;;0.88;;
58689;SDS011;44470;53.206;-6.106;2023-01-28T05:53:30;1.02;;;0.65;;
58689;SDS011;44470;53.206;-6.106;2023-01-28T05:55:56;1.92;;;0.85;;
58689;SDS011;44470;53.206;-6.106;2023-01-28T05:58:22;0.95;;;0.95;;
58689;SDS011;44470;53.206;-6.106;2023-01-28T06:03:45;1.40;;;0.90;;
58689;SDS011;44470;53.206;-6.106;2023-01-28T06:06:11;0.88;;;0.88;;
58689;SDS011;44470;53.206;-6.106;2023-01-28T06:08:36;1.00;;;1.00;;
58689;SDS011;44470;53.206;-6.106;2023-01-28T06:11:02;0.90;;;0.90;;
58689;SDS011;44470;53.206;-6.106;2023-01-28T06:13:34;1.27;;;0.90;;
58689;SDS011;44470;53.206;-6.106;2023-01-28T06:16:12;3.83;;;1.13;;
58689;SDS011;44470;53.206;-6.106;2023-01-28T06:19:07;0.95;;;0.95;;
58689;SDS011;44470;53.206;-6.106;2023-01-28T06:21:33;1.27;;;0.95;;
58689;SDS011;44470;53.206;-6.106;2023-01-28T06:23:58;1.83;;;0.95;;
58689;SDS011;44470;53.206;-6.106;2023-01-28T06:26:24;1.67;;;0.73;;
58689;SDS011;44470;53.206;-6.106;2023-01-28T06:28:49;4.93;;;1.00;;
58689;SDS011;44470;53.206;-6.106;2023-01-28T06:31:15;0.95;;;0.80;;
58689;SDS011;44470;53.206;-6.106;2023-01-28T06:33:40;0.70;;;0.70;;
58689;SDS011;44470;53.206;-6.106;2023-01-28T06:36:06;1.23;;;0.60;;
58689;SDS011;44470;53.206;-6.106;2023-01-28T06:38:32;1.00;;;0.98;;
58689;SDS011;44470;53.206;-6.106;2023-01-28T06:40:58;1.42;;;0.80;;
58689;SDS011;44470;53.206;-6.106;2023-01-28T06:43:23;0.82;;;0.80;;
58689;SDS011;44470;53.206;-6.106;2023-01-28T06:45:52;1.02;;;0.70;;
58689;SDS011;44470;53.206;-6.106;2023-01-28T06:48:19;1.20;;;0.90;;
58689;SDS011;44470;53.206;-6.106;2023-01-28T06:50:48;0.73;;;0.70;;
58689;SDS011;44470;53.206;-6.106;2023-01-28T06:53:14;2.00;;;0.73;;
58689;SDS011;44470;53.206;-6.106;2023-01-28T06:55:40;0.90;;;0.90;;
58689;SDS011;44470;53.206;-6.106;2023-01-28T06:58:05;1.67;;;0.90;;
58689;SDS011;44470;53.206;-6.106;2023-01-28T07:00:31;0.80;;;0.80;;
58689;SDS011;44470;53.206;-6.106;2023-01-28T07:02:56;0.88;;;0.88;;
58689;SDS011;44470;53.206;-6.106;2023-01-28T07:05:25;1.15;;;1.00;;
58689;SDS011;44470;53.206;-6.106;2023-01-28T07:07:51;1.70;;;0.83;;
58689;SDS011;44470;53.206;-6.106;2023-01-28T07:10:18;0.52;;;0.52;;
58689;SDS011;44470;53.206;-6.106;2023-01-28T07:12:43;0.80;;;0.80;;
58689;SDS011;44470;53.206;-6.106;2023-01-28T07:15:09;0.70;;;0.70;;
58689;SDS011;44470;53.206;-6.106;2023-01-28T07:17:41;1.02;;;0.80;;
58689;SDS011;44470;53.206;-6.106;2023-01-28T07:20:08;1.02;;;1.00;;
58689;SDS011;44470;53.206;-6.106;2023-01-28T07:22:35;0.90;;;0.80;;
58689;SDS011;44470;53.206;-6.106;2023-01-28T07:25:03;1.15;;;0.80;;
58689;SDS011;44470;53.206;-6.106;2023-01-28T07:27:30;1.45;;;0.82;;
58689;SDS011;44470;53.206;-6.106;2023-01-28T07:29:55;1.40;;;0.80;;
58689;SDS011;44470;53.206;-6.106;2023-01-28T07:32:20;1.20;;;0.52;;
58689;SDS011;44470;53.206;-6.106;2023-01-28T07:34:46;0.95;;;0.80;;
58689;SDS011;44470;53.206;-6.106;2023-01-28T07:37:11;0.98;;;0.85;;
58689;SDS011;44470;53.206;-6.106;2023-01-28T07:39:37;0.70;;;0.70;;
58689;SDS011;44470;53.206;-6.106;2023-01-28T07:42:02;1.27;;;0.90;;
58689;SDS011;44470;53.206;-6.106;2023-01-28T07:44:36;0.90;;;0.60;;
58689;SDS011;44470;53.206;-6.106;2023-01-28T07:47:02;1.15;;;0.73;;
58689;SDS011;44470;53.206;-6.106;2023-01-28T07:49:29;0.82;;;0.70;;
58689;SDS011;44470;53.206;-6.106;2023-01-28T07:51:54;0.68;;;0.63;;
58689;SDS011;44470;53.206;-6.106;2023-01-28T07:54:20;0.80;;;0.70;;
58689;SDS011;44470;53.206;-6.106;2023-01-28T07:56:45;0.90;;;0.90;;
58689;SDS011;44470;53.206;-6.106;2023-01-28T07:59:11;0.55;;;0.55;;
58689;SDS011;44470;53.206;-6.106;2023-01-28T08:01:36;1.23;;;0.68;;
58689;SDS011;44470;53.206;-6.106;2023-01-28T08:04:02;1.23;;;0.70;;
58689;SDS011;44470;53.206;-6.106;2023-01-28T08:06:28;0.88;;;0.70;;
58689;SDS011;44470;53.206;-6.106;2023-01-28T08:08:54;0.52;;;0.52;;
58689;SDS011;44470;53.206;-6.106;2023-01-28T08:11:20;1.00;;;0.50;;
58689;SDS011;44470;53.206;-6.106;2023-01-28T08:13:45;1.08;;;1.00;;
58689;SDS011;44470;53.206;-6.106;2023-01-28T08:16:12;0.93;;;0.68;;
58689;SDS011;44470;53.206;-6.106;2023-01-28T08:18:37;0.60;;;0.60;;
58689;SDS011;44470;53.206;-6.106;2023-01-28T08:21:03;1.88;;;0.70;;
58689;SDS011;44470;53.206;-6.106;2023-01-28T08:23:29;0.50;;;0.50;;
58689;SDS011;44470;53.206;-6.106;2023-01-28T08:25:56;0.75;;;0.75;;
58689;SDS011;44470;53.206;-6.106;2023-01-28T08:28:23;0.47;;;0.45;;
58689;SDS011;44470;53.206;-6.106;2023-01-28T08:30:49;0.90;;;0.63;;
58689;SDS011;44470;53.206;-6.106;2023-01-28T08:33:15;0.77;;;0.73;;
58689;SDS011;44470;53.206;-6.106;2023-01-28T08:35:42;0.60;;;0.60;;
58689;SDS011;44470;53.206;-6.106;2023-01-28T08:38:08;0.63;;;0.63;;
58689;SDS011;44470;53.206;-6.106;2023-01-28T08:40:36;1.13;;;0.60;;
58689;SDS011;44470;53.206;-6.106;2023-01-28T08:43:01;1.05;;;0.60;;
58689;SDS011;44470;53.206;-6.106;2023-01-28T08:45:27;0.70;;;0.65;;
58689;SDS011;44470;53.206;-6.106;2023-01-28T08:47:58;0.50;;;0.50;;
58689;SDS011;44470;53.206;-6.106;2023-01-28T08:50:27;1.27;;;0.50;;
58689;SDS011;44470;53.206;-6.106;2023-01-28T08:52:57;0.50;;;0.50;;
58689;SDS011;44470;53.206;-6.106;2023-01-28T08:55:24;0.50;;;0.47;;
58689;SDS011;44470;53.206;-6.106;2023-01-28T08:57:51;0.63;;;0.63;;
58689;SDS011;44470;53.206;-6.106;2023-01-28T09:00:18;0.40;;;0.40;;
58689;SDS011;44470;53.206;-6.106;2023-01-28T09:02:44;0.57;;;0.57;;
58689;SDS011;44470;53.206;-6.106;2023-01-28T09:05:09;0.68;;;0.68;;
58689;SDS011;44470;53.206;-6.106;2023-01-28T09:07:35;0.60;;;0.60;;
58689;SDS011;44470;53.206;-6.106;2023-01-28T09:10:02;0.50;;;0.50;;
58689;SDS011;44470;53.206;-6.106;2023-01-28T09:12:28;0.65;;;0.65;;
58689;SDS011;44470;53.206;-6.106;2023-01-28T09:14:53;2.08;;;0.55;;
58689;SDS011;44470;53.206;-6.106;2023-01-28T09:17:19;1.42;;;0.63;;
58689;SDS011;44470;53.206;-6.106;2023-01-28T09:19:45;1.05;;;0.60;;
58689;SDS011;44470;53.206;-6.106;2023-01-28T09:22:11;0.77;;;0.77;;
58689;SDS011;44470;53.206;-6.106;2023-01-28T09:24:36;0.93;;;0.90;;
58689;SDS011;44470;53.206;-6.106;2023-01-28T09:27:02;0.40;;;0.40;;
58689;SDS011;44470;53.206;-6.106;2023-01-28T09:29:28;0.60;;;0.60;;
58689;SDS011;44470;53.206;-6.106;2023-01-28T09:31:53;0.77;;;0.70;;
58689;SDS011;44470;53.206;-6.106;2023-01-28T09:34:19;0.47;;;0.40;;
58689;SDS011;44470;53.206;-6.106;2023-01-28T09:36:45;0.93;;;0.70;;
58689;SDS011;44470;53.206;-6.106;2023-01-28T09:39:10;0.57;;;0.50;;
58689;SDS011;44470;53.206;-6.106;2023-01-28T09:41:42;0.60;;;0.60;;
58689;SDS011;44470;53.206;-6.106;2023-01-28T09:47:02;3.03;;;0.90;;
58689;SDS011;44470;53.206;-6.106;2023-01-28T09:52:07;5.57;;;1.15;;
58689;SDS011;44470;53.206;-6.106;2023-01-28T09:54:48;5.03;;;1.00;;
58689;SDS011;44470;53.206;-6.106;2023-01-28T09:57:51;4.95;;;1.10;;
58689;SDS011;44470;53.206;-6.106;2023-01-28T10:00:15;3.83;;;0.85;;
58689;SDS011;44470;53.206;-6.106;2023-01-28T10:16:30;4.00;;;1.08;;
58689;SDS011;44470;53.206;-6.106;2023-01-28T10:19:35;4.35;;;1.27;;
58689;SDS011;44470;53.206;-6.106;2023-01-28T10:21:59;2.08;;;0.98;;
58689;SDS011;44470;53.206;-6.106;2023-01-28T10:24:33;4.88;;;1.25;;
58689;SDS011;44470;53.206;-6.106;2023-01-28T10:27:01;4.38;;;1.35;;
58689;SDS011;44470;53.206;-6.106;2023-01-28T10:29:33;4.07;;;1.27;;
58689;SDS011;44470;53.206;-6.106;2023-01-28T10:34:46;4.68;;;1.23;;
58689;SDS011;44470;53.206;-6.106;2023-01-28T10:37:12;1.90;;;1.00;;
58689;SDS011;44470;53.206;-6.106;2023-01-28T10:39:40;3.53;;;1.20;;
58689;SDS011;44470;53.206;-6.106;2023-01-28T10:47:37;3.20;;;1.10;;
58689;SDS011;44470;53.206;-6.106;2023-01-28T10:50:05;6.93;;;1.42;;
58689;SDS011;44470;53.206;-6.106;2023-01-28T10:52:49;2.83;;;1.23;;
58689;SDS011;44470;53.206;-6.106;2023-01-28T10:55:23;8.10;;;1.13;;
58689;SDS011;44470;53.206;-6.106;2023-01-28T10:57:52;4.00;;;1.30;;
58689;SDS011;44470;53.206;-6.106;2023-01-28T11:02:44;3.25;;;1.17;;
58689;SDS011;44470;53.206;-6.106;2023-01-28T11:05:17;1.83;;;1.08;;
58689;SDS011;44470;53.206;-6.106;2023-01-28T11:07:49;6.13;;;1.70;;
58689;SDS011;44470;53.206;-6.106;2023-01-28T11:10:32;6.03;;;1.50;;
58689;SDS011;44470;53.206;-6.106;2023-01-28T11:13:01;5.85;;;1.33;;
58689;SDS011;44470;53.206;-6.106;2023-01-28T11:15:30;14.23;;;2.45;;
58689;SDS011;44470;53.206;-6.106;2023-01-28T11:18:07;28.17;;;3.63;;
58689;SDS011;44470;53.206;-6.106;2023-01-28T11:20:56;38.22;;;3.55;;
58689;SDS011;44470;53.206;-6.106;2023-01-28T11:23:28;24.90;;;3.20;;
58689;SDS011;44470;53.206;-6.106;2023-01-28T11:26:01;37.42;;;3.42;;
58689;SDS011;44470;53.206;-6.106;2023-01-28T11:30:56;13.55;;;2.15;;
58689;SDS011;44470;53.206;-6.106;2023-01-28T11:35:57;10.18;;;1.48;;
58689;SDS011;44470;53.206;-6.106;2023-01-28T11:38:29;15.18;;;2.20;;
58689;SDS011;44470;53.206;-6.106;2023-01-28T11:40:56;8.60;;;1.38;;
58689;SDS011;44470;53.206;-6.106;2023-01-28T11:43:24;11.35;;;1.45;;
58689;SDS011;44470;53.206;-6.106;2023-01-28T11:49:06;14.10;;;1.63;;
58689;SDS011;44470;53.206;-6.106;2023-01-28T11:52:00;22.50;;;2.10;;
58689;SDS011;44470;53.206;-6.106;2023-01-28T12:00:26;17.40;;;1.63;;
58689;SDS011;44470;53.206;-6.106;2023-01-28T12:20:41;19.30;;;1.77;;
58689;SDS011;44470;53.206;-6.106;2023-01-28T12:26:19;16.77;;;1.92;;
58689;SDS011;44470;53.206;-6.106;2023-01-28T12:46:50;24.83;;;2.40;;
58689;SDS011;44470;53.206;-6.106;2023-01-28T12:57:25;6.20;;;1.10;;
58689;SDS011;44470;53.206;-6.106;2023-01-28T13:00:05;14.10;;;1.48;;
58689;SDS011;44470;53.206;-6.106;2023-01-28T13:02:46;6.43;;;0.98;;
58689;SDS011;44470;53.206;-6.106;2023-01-28T13:05:20;9.95;;;1.52;;
58689;SDS011;44470;53.206;-6.106;2023-01-28T13:07:58;14.30;;;1.55;;
58689;SDS011;44470;53.206;-6.106;2023-01-28T13:13:16;14.75;;;1.67;;
58689;SDS011;44470;53.206;-6.106;2023-01-28T13:15:52;20.98;;;2.30;;
58689;SDS011;44470;53.206;-6.106;2023-01-28T13:18:40;23.58;;;2.40;;
58689;SDS011;44470;53.206;-6.106;2023-01-28T13:21:12;22.65;;;2.80;;
58689;SDS011;44470;53.206;-6.106;2023-01-28T13:26:09;34.72;;;2.75;;
58689;SDS011;44470;53.206;-6.106;2023-01-28T13:31:12;19.83;;;2.67;;
58689;SDS011;44470;53.206;-6.106;2023-01-28T13:33:46;28.52;;;2.40;;
58689;SDS011;44470;53.206;-6.106;2023-01-28T13:38:44;9.95;;;1.40;;
58689;SDS011;44470;53.206;-6.106;2023-01-28T13:41:10;8.88;;;1.23;;
58689;SDS011;44470;53.206;-6.106;2023-01-28T13:43:36;13.30;;;1.85;;
58689;SDS011;44470;53.206;-6.106;2023-01-28T13:46:08;7.93;;;1.35;;
58689;SDS011;44470;53.206;-6.106;2023-01-28T13:48:47;6.05;;;1.35;;
58689;SDS011;44470;53.206;-6.106;2023-01-28T13:51:19;6.35;;;1.48;;
58689;SDS011;44470;53.206;-6.106;2023-01-28T13:53:52;7.22;;;1.73;;
58689;SDS011;44470;53.206;-6.106;2023-01-28T13:56:29;6.07;;;1.50;;
58689;SDS011;44470;53.206;-6.106;2023-01-28T13:59:09;3.97;;;1.40;;
58689;SDS011;44470;53.206;-6.106;2023-01-28T14:02:00;4.97;;;1.30;;
58689;SDS011;44470;53.206;-6.106;2023-01-28T14:15:42;12.65;;;1.90;;
58689;SDS011;44470;53.206;-6.106;2023-01-28T14:18:16;25.27;;;2.13;;
58689;SDS011;44470;53.206;-6.106;2023-01-28T14:20:46;27.23;;;2.40;;
58689;SDS011;44470;53.206;-6.106;2023-01-28T14:23:15;25.08;;;2.30;;
58689;SDS011;44470;53.206;-6.106;2023-01-28T14:28:14;22.70;;;2.55;;
58689;SDS011;44470;53.206;-6.106;2023-01-28T14:30:47;16.98;;;2.15;;
58689;SDS011;44470;53.206;-6.106;2023-01-28T14:33:18;7.13;;;2.05;;
58689;SDS011;44470;53.206;-6.106;2023-01-28T14:35:46;25.90;;;2.17;;
58689;SDS011;44470;53.206;-6.106;2023-01-28T14:38:14;21.73;;;2.28;;
58689;SDS011;44470;53.206;-6.106;2023-01-28T14:40:43;24.33;;;2.30;;
58689;SDS011;44470;53.206;-6.106;2023-01-28T14:43:14;15.82;;;1.85;;
58689;SDS011;44470;53.206;-6.106;2023-01-28T14:57:24;37.40;;;5.60;;
58689;SDS011;44470;53.206;-6.106;2023-01-28T15:02:25;15.45;;;3.00;;
58689;SDS011;44470;53.206;-6.106;2023-01-28T15:04:53;10.07;;;2.28;;
58689;SDS011;44470;53.206;-6.106;2023-01-28T15:07:23;4.15;;;2.13;;
58689;SDS011;44470;53.206;-6.106;2023-01-28T15:10:04;9.32;;;2.47;;
58689;SDS011;44470;53.206;-6.106;2023-01-28T15:12:33;9.88;;;2.00;;
58689;SDS011;44470;53.206;-6.106;2023-01-28T15:17:53;9.45;;;1.95;;
58689;SDS011;44470;53.206;-6.106;2023-01-28T15:20:22;6.30;;;2.00;;
58689;SDS011;44470;53.206;-6.106;2023-01-28T15:22:49;8.50;;;1.75;;
58689;SDS011;44470;53.206;-6.106;2023-01-28T15:25:17;7.00;;;1.63;;
58689;SDS011;44470;53.206;-6.106;2023-01-28T15:27:45;8.48;;;1.70;;
58689;SDS011;44470;53.206;-6.106;2023-01-28T15:30:26;8.65;;;1.77;;
58689;SDS011;44470;53.206;-6.106;2023-01-28T15:35:28;8.27;;;1.55;;
58689;SDS011;44470;53.206;-6.106;2023-01-28T15:37:55;4.72;;;1.85;;
58689;SDS011;44470;53.206;-6.106;2023-01-28T15:40:21;6.95;;;1.52;;
58689;SDS011;44470;53.206;-6.106;2023-01-28T15:42:48;5.60;;;1.70;;
58689;SDS011;44470;53.206;-6.106;2023-01-28T15:45:18;2.65;;;1.42;;
58689;SDS011;44470;53.206;-6.106;2023-01-28T15:47:46;20.88;;;2.40;;
58689;SDS011;44470;53.206;-6.106;2023-01-28T15:50:20;11.55;;;2.28;;
58689;SDS011;44470;53.206;-6.106;2023-01-28T15:52:48;10.88;;;1.83;;
58689;SDS011;44470;53.206;-6.106;2023-01-28T15:55:36;11.27;;;2.08;;
58689;SDS011;44470;53.206;-6.106;2023-01-28T16:00:44;4.82;;;3.10;;
58689;SDS011;44470;53.206;-6.106;2023-01-28T16:03:18;9.20;;;6.03;;
58689;SDS011;44470;53.206;-6.106;2023-01-28T16:05:52;11.50;;;9.13;;
58689;SDS011;44470;53.206;-6.106;2023-01-28T16:08:28;10.85;;;9.75;;
58689;SDS011;44470;53.206;-6.106;2023-01-28T16:11:01;9.65;;;8.50;;
58689;SDS011;44470;53.206;-6.106;2023-01-28T16:13:29;9.80;;;8.80;;
58689;SDS011;44470;53.206;-6.106;2023-01-28T16:15:57;8.38;;;7.32;;
58689;SDS011;44470;53.206;-6.106;2023-01-28T16:18:34;9.48;;;7.07;;
58689;SDS011;44470;53.206;-6.106;2023-01-28T16:21:29;13.88;;;9.32;;
58689;SDS011;44470;53.206;-6.106;2023-01-28T16:24:00;10.43;;;7.85;;
58689;SDS011;44470;53.206;-6.106;2023-01-28T16:26:30;9.18;;;7.70;;
58689;SDS011;44470;53.206;-6.106;2023-01-28T16:29:12;8.40;;;7.18;;
58689;SDS011;44470;53.206;-6.106;2023-01-28T16:31:48;12.50;;;7.50;;
58689;SDS011;44470;53.206;-6.106;2023-01-28T16:34:14;8.23;;;6.15;;
58689;SDS011;44470;53.206;-6.106;2023-01-28T16:36:39;8.18;;;6.43;;
58689;SDS011;44470;53.206;-6.106;2023-01-28T16:39:04;9.35;;;8.00;;
58689;SDS011;44470;53.206;-6.106;2023-01-28T16:41:31;11.25;;;9.40;;
58689;SDS011;44470;53.206;-6.106;2023-01-28T16:43:58;9.55;;;8.18;;
58689;SDS011;44470;53.206;-6.106;2023-01-28T16:46:29;7.35;;;6.75;;
58689;SDS011;44470;53.206;-6.106;2023-01-28T16:48:56;5.88;;;5.38;;
58689;SDS011;44470;53.206;-6.106;2023-01-28T16:51:21;5.07;;;4.50;;
58689;SDS011;44470;53.206;-6.106;2023-01-28T16:53:47;4.35;;;4.05;;
58689;SDS011;44470;53.206;-6.106;2023-01-28T16:56:15;4.38;;;3.92;;
58689;SDS011;44470;53.206;-6.106;2023-01-28T16:58:42;5.45;;;3.75;;
58689;SDS011;44470;53.206;-6.106;2023-01-28T17:01:08;4.45;;;4.10;;
58689;SDS011;44470;53.206;-6.106;2023-01-28T17:03:36;6.03;;;4.45;;
58689;SDS011;44470;53.206;-6.106;2023-01-28T17:06:02;4.70;;;4.25;;
58689;SDS011;44470;53.206;-6.106;2023-01-28T17:08:28;5.30;;;4.80;;
58689;SDS011;44470;53.206;-6.106;2023-01-28T17:10:53;4.95;;;4.55;;
58689;SDS011;44470;53.206;-6.106;2023-01-28T17:13:19;6.43;;;5.03;;
58689;SDS011;44470;53.206;-6.106;2023-01-28T17:15:45;5.57;;;5.18;;
58689;SDS011;44470;53.206;-6.106;2023-01-28T17:18:11;6.32;;;5.72;;
58689;SDS011;44470;53.206;-6.106;2023-01-28T17:20:37;6.25;;;5.55;;
58689;SDS011;44470;53.206;-6.106;2023-01-28T17:23:11;8.20;;;6.55;;
58689;SDS011;44470;53.206;-6.106;2023-01-28T17:25:39;7.80;;;6.43;;
58689;SDS011;44470;53.206;-6.106;2023-01-28T17:28:06;7.13;;;6.43;;
58689;SDS011;44470;53.206;-6.106;2023-01-28T17:30:32;7.18;;;6.45;;
58689;SDS011;44470;53.206;-6.106;2023-01-28T17:32:58;6.95;;;6.35;;
58689;SDS011;44470;53.206;-6.106;2023-01-28T17:35:23;7.18;;;6.25;;
58689;SDS011;44470;53.206;-6.106;2023-01-28T17:37:52;8.73;;;5.88;;
58689;SDS011;44470;53.206;-6.106;2023-01-28T17:40:19;9.07;;;6.10;;